Time;durP1;ratioP1;P1;durP2;ratioP2;P2;SDS_P1;SDS_P2;PMS_P1;PMS_P2;Temp;Humidity;BMP_temperature;BMP_pressure;BME280_temperature;BME280_humidity;BME280_pressure;Samples;Min_cycle;Max_cycle;Signal;HPM_P1;HPM_P2
2020/12/18 00:00:14;;;;;;;15.20;6.90;;;9.30;99.90;;;;;;5014055;28;20239;-91
2020/12/18 00:03:02;;;;;;;20.50;5.83;;;9.40;99.90;;;;;;5034038;28;20166;-92
2020/12/18 00:05:32;;;;;;;18.13;6.80;;;9.30;99.90;;;;;;5016146;28;20197;-92
2020/12/18 00:08:02;;;;;;;16.20;5.93;;;9.40;99.90;;;;;;5015422;28;20169;-91
2020/12/18 00:10:28;;;;;;;10.87;5.60;;;9.30;99.90;;;;;;5031515;28;20248;-92
2020/12/18 00:13:01;;;;;;;14.40;5.60;;;9.40;99.90;;;;;;5014330;28;20179;-92
2020/12/18 00:15:52;;;;;;;12.17;5.73;;;9.40;99.90;;;;;;5015746;28;20180;-92
2020/12/18 00:18:23;;;;;;;17.10;5.80;;;9.40;99.90;;;;;;5014820;28;20197;-91
2020/12/18 00:21:10;;;;;;;10.37;5.17;;;9.40;99.90;;;;;;5014836;28;20180;-92
2020/12/18 00:23:39;;;;;;;10.63;5.07;;;9.50;99.90;;;;;;5032427;28;20154;-93
2020/12/18 00:26:20;;;;;;;14.17;5.60;;;9.50;99.90;;;;;;5031966;28;20145;-92
2020/12/18 00:28:50;;;;;;;16.87;5.37;;;9.50;99.90;;;;;;5031329;28;20163;-92
2020/12/18 00:31:18;;;;;;;13.73;5.37;;;9.40;99.90;;;;;;5013870;28;20166;-92
2020/12/18 00:33:52;;;;;;;11.80;4.57;;;9.30;99.90;;;;;;5013499;28;20204;-91
2020/12/18 00:36:28;;;;;;;11.10;4.90;;;9.40;99.90;;;;;;5031667;28;20173;-92
2020/12/18 00:39:17;;;;;;;10.70;4.57;;;9.30;99.90;;;;;;5029802;28;20541;-93
2020/12/18 00:41:51;;;;;;;8.87;4.73;;;9.30;99.90;;;;;;5013827;28;20197;-93
2020/12/18 00:44:22;;;;;;;8.77;4.73;;;9.20;99.90;;;;;;5030660;28;20199;-93
2020/12/18 00:47:18;;;;;;;13.20;5.10;;;9.30;99.90;;;;;;5030074;28;20253;-92
2020/12/18 00:50:09;;;;;;;14.40;5.17;;;9.30;99.90;;;;;;5013430;28;20157;-93
2020/12/18 00:52:40;;;;;;;11.23;5.27;;;9.20;99.90;;;;;;5013659;28;20252;-93
2020/12/18 00:55:17;;;;;;;10.07;4.87;;;9.20;99.90;;;;;;5016946;28;20181;-93
2020/12/18 00:58:00;;;;;;;14.30;4.97;;;9.10;99.90;;;;;;5254690;23;20284;-92
2020/12/18 01:00:40;;;;;;;23.23;5.73;;;9.10;99.90;;;;;;5021261;28;20161;-92
2020/12/18 01:03:44;;;;;;;8.80;4.77;;;9.20;99.90;;;;;;5033980;28;20173;-93
2020/12/18 01:06:37;;;;;;;14.10;4.90;;;9.30;99.90;;;;;;5032939;28;20177;-92
2020/12/18 01:09:14;;;;;;;11.13;4.47;;;9.10;99.90;;;;;;5021210;28;20173;-92
2020/12/18 01:11:58;;;;;;;15.17;4.70;;;9.00;99.90;;;;;;5037609;28;20170;-92
2020/12/18 01:15:01;;;;;;;16.13;5.13;;;9.10;99.90;;;;;;5037050;28;20162;-93
2020/12/18 01:18:02;;;;;;;12.87;4.87;;;9.20;99.90;;;;;;5020157;28;20161;-91
2020/12/18 01:21:00;;;;;;;13.47;4.53;;;9.20;99.90;;;;;;5020868;28;20177;-92
2020/12/18 01:23:35;;;;;;;13.67;4.40;;;9.20;99.90;;;;;;5034964;28;20224;-93
2020/12/18 01:26:24;;;;;;;9.07;4.57;;;9.10;99.90;;;;;;5019436;28;20177;-93
2020/12/18 01:29:07;;;;;;;12.47;4.87;;;9.10;99.90;;;;;;5036842;28;20189;-93
2020/12/18 01:31:38;;;;;;;10.37;4.37;;;9.00;99.90;;;;;;5006264;28;20181;-93
2020/12/18 01:34:27;;;;;;;12.03;4.40;;;9.10;99.90;;;;;;5020796;28;20564;-93
2020/12/18 01:36:59;;;;;;;11.80;4.57;;;9.00;99.90;;;;;;5036921;28;20181;-91
2020/12/18 01:44:36;;;;;;;8.60;4.10;;;9.00;99.90;;;;;;5037664;28;20224;-92
2020/12/18 01:47:44;;;;;;;13.43;4.57;;;9.00;99.90;;;;;;5021017;28;20212;-92
2020/12/18 01:50:19;;;;;;;15.87;4.33;;;9.10;99.90;;;;;;5029210;28;20189;-92
2020/12/18 01:53:14;;;;;;;11.77;4.70;;;9.20;99.90;;;;;;5014370;28;20185;-92
2020/12/18 01:56:05;;;;;;;11.87;3.90;;;9.00;99.90;;;;;;5035974;28;20165;-92
2020/12/18 01:58:54;;;;;;;11.60;3.77;;;9.00;99.90;;;;;;5037020;28;20203;-91
2020/12/18 02:01:43;;;;;;;11.20;3.70;;;9.10;99.90;;;;;;5020433;28;20170;-90
2020/12/18 02:04:54;;;;;;;14.63;4.57;;;9.20;99.90;;;;;;5038662;28;20166;-92
2020/12/18 02:07:44;;;;;;;10.67;3.57;;;9.10;99.90;;;;;;5037485;28;20178;-92
2020/12/18 02:10:11;;;;;;;7.80;3.20;;;9.20;99.90;;;;;;5021668;28;20183;-91
2020/12/18 02:12:43;;;;;;;18.80;3.80;;;9.10;99.90;;;;;;5020847;28;20182;-92
2020/12/18 02:15:18;;;;;;;15.37;3.67;;;9.10;99.90;;;;;;5020762;28;20225;-92
2020/12/18 02:17:59;;;;;;;8.13;3.17;;;9.20;99.90;;;;;;5037805;28;20168;-92
2020/12/18 02:21:00;;;;;;;8.63;3.03;;;9.20;99.90;;;;;;5020523;28;20188;-92
2020/12/18 02:24:04;;;;;;;9.97;3.40;;;9.20;99.90;;;;;;5012078;28;20261;-92
2020/12/18 02:27:06;;;;;;;7.67;2.60;;;9.10;99.90;;;;;;5018743;28;20197;-91
2020/12/18 02:30:10;;;;;;;9.90;3.00;;;9.10;99.90;;;;;;5018039;28;20181;-93
2020/12/18 02:32:59;;;;;;;12.40;3.27;;;9.20;99.90;;;;;;5031356;28;20172;-90
2020/12/18 02:35:55;;;;;;;10.87;3.77;;;9.20;99.90;;;;;;5013671;28;20180;-92
2020/12/18 02:38:30;;;;;;;15.73;3.40;;;9.20;99.90;;;;;;5018569;28;20209;-92
2020/12/18 02:41:28;;;;;;;12.83;3.43;;;9.10;99.90;;;;;;5017666;28;20184;-92
2020/12/18 02:44:05;;;;;;;11.27;2.90;;;9.10;99.90;;;;;;5018235;28;20192;-92
2020/12/18 02:47:06;;;;;;;9.80;3.33;;;9.10;99.90;;;;;;5032411;28;20186;-92
2020/12/18 02:53:02;;;;;;;14.43;3.00;;;9.10;99.90;;;;;;5021336;28;20244;-92
2020/12/18 02:55:52;;;;;;;13.40;2.77;;;9.20;99.90;;;;;;5017840;28;20189;-92
2020/12/18 02:58:43;;;;;;;8.63;3.17;;;9.20;99.90;;;;;;5034682;28;20307;-92
2020/12/18 03:01:42;;;;;;;7.13;2.40;;;9.30;99.90;;;;;;5029880;28;20190;-91
2020/12/18 03:04:33;;;;;;;;;;;;;;;;;;;;;
2020/12/18 03:07:25;;;;;;;8.53;2.97;;;9.20;99.90;;;;;;5031059;28;20193;-92
2020/12/18 03:10:26;;;;;;;8.00;3.40;;;9.20;99.90;;;;;;5033550;28;20182;-92
2020/12/18 03:13:08;;;;;;;9.40;2.97;;;9.20;99.90;;;;;;5033962;28;20165;-92
2020/12/18 03:16:35;;;;;;;10.57;3.27;;;9.20;99.90;;;;;;5032443;28;20238;-92
2020/12/18 03:19:40;;;;;;;7.63;2.53;;;9.00;99.90;;;;;;5014955;28;20210;-92
2020/12/18 03:22:32;;;;;;;5.97;2.73;;;8.90;99.90;;;;;;5014434;28;20185;-91
2020/12/18 03:25:26;;;;;;;6.53;2.63;;;9.00;99.90;;;;;;5031526;28;20182;-92
2020/12/18 03:27:58;;;;;;;6.83;2.70;;;9.00;99.90;;;;;;5015228;28;20161;-92
2020/12/18 03:30:26;;;;;;;8.53;2.97;;;9.10;99.90;;;;;;5014659;28;20189;-92
2020/12/18 03:33:13;;;;;;;12.80;3.30;;;9.00;99.90;;;;;;5013684;28;20177;-92
2020/12/18 03:35:44;;;;;;;14.37;3.17;;;9.00;99.90;;;;;;5014641;28;20254;-92
2020/12/18 03:38:22;;;;;;;10.47;3.20;;;9.00;99.90;;;;;;5017846;28;20272;-91
2020/12/18 03:40:51;;;;;;;9.07;3.97;;;8.90;99.90;;;;;;5020455;28;20173;-92
2020/12/18 03:43:18;;;;;;;10.87;3.37;;;8.90;99.90;;;;;;5039587;28;20180;-92
2020/12/18 03:46:07;;;;;;;7.23;3.17;;;8.90;99.90;;;;;;5022661;28;20170;-91
2020/12/18 03:48:44;;;;;;;11.17;4.50;;;8.90;99.90;;;;;;5039099;28;20165;-91
2020/12/18 03:51:20;;;;;;;6.73;3.40;;;8.90;99.90;;;;;;5021758;28;20165;-92
2020/12/18 03:54:06;;;;;;;10.67;3.80;;;8.90;99.90;;;;;;5021232;28;20168;-92
2020/12/18 03:56:32;;;;;;;9.57;3.80;;;8.80;99.90;;;;;;5021866;28;20338;-92
2020/12/18 03:59:11;;;;;;;14.47;3.20;;;8.80;99.90;;;;;;5021981;28;20245;-91
2020/12/18 04:01:44;;;;;;;12.87;4.20;;;8.80;99.90;;;;;;5038014;28;20162;-92
2020/12/18 04:04:12;;;;;;;13.60;4.13;;;8.90;99.90;;;;;;5021568;28;20201;-92
2020/12/18 04:06:38;;;;;;;8.67;4.13;;;8.80;99.90;;;;;;5021470;28;20181;-92
2020/12/18 04:09:11;;;;;;;11.53;4.27;;;8.90;99.90;;;;;;5037851;28;20169;-92
2020/12/18 04:12:12;;;;;;;12.77;4.30;;;8.80;99.90;;;;;;5020676;28;20189;-92
2020/12/18 04:14:44;;;;;;;11.60;4.43;;;8.80;99.90;;;;;;5037729;28;20175;-91
2020/12/18 04:17:17;;;;;;;8.23;4.53;;;8.80;99.90;;;;;;5020964;28;20460;-92
2020/12/18 04:19:49;;;;;;;13.53;4.40;;;8.80;99.90;;;;;;5021223;28;20208;-92
2020/12/18 04:22:20;;;;;;;11.03;3.73;;;8.80;99.90;;;;;;5034392;28;20169;-91
2020/12/18 04:24:51;;;;;;;9.73;4.50;;;8.90;99.90;;;;;;5020547;28;20173;-91
2020/12/18 04:27:25;;;;;;;16.97;4.07;;;8.80;99.90;;;;;;5034968;28;20162;-91
2020/12/18 04:30:07;;;;;;;17.80;4.33;;;8.80;99.90;;;;;;5036391;28;20169;-91
2020/12/18 04:32:56;;;;;;;8.60;4.03;;;9.00;99.90;;;;;;5019731;28;20188;-92
2020/12/18 04:35:23;;;;;;;9.80;3.63;;;8.90;99.90;;;;;;5019362;28;20179;-92
2020/12/18 04:40:22;;;;;;;14.23;3.47;;;9.10;99.90;;;;;;5040491;23;20212;-92
2020/12/18 04:43:13;;;;;;;12.47;3.50;;;9.10;99.90;;;;;;5035853;28;20174;-91
2020/12/18 04:45:48;;;;;;;7.73;4.43;;;9.10;99.90;;;;;;5019386;28;20184;-92
2020/12/18 04:48:19;;;;;;;10.67;3.73;;;9.10;99.90;;;;;;5036119;28;20165;-92
2020/12/18 04:51:01;;;;;;;9.90;4.33;;;9.10;99.90;;;;;;5035724;28;20233;-91
2020/12/18 04:53:32;;;;;;;7.73;3.80;;;9.20;99.90;;;;;;5034853;28;20173;-91
2020/12/18 04:56:08;;;;;;;15.20;4.50;;;9.30;99.90;;;;;;5018897;28;20227;-91
2020/12/18 04:58:40;;;;;;;8.00;3.87;;;9.20;99.90;;;;;;5018151;28;20205;-91
2020/12/18 05:01:18;;;;;;;10.93;3.50;;;9.00;99.90;;;;;;5035133;28;20150;-92
2020/12/18 05:03:53;;;;;;;11.07;4.10;;;9.20;99.90;;;;;;5013571;28;20344;-92
2020/12/18 05:06:19;;;;;;;8.27;3.93;;;9.20;99.90;;;;;;5014736;28;20188;-92
2020/12/18 05:09:04;;;;;;;10.57;3.50;;;9.10;99.90;;;;;;4996931;28;20212;-92
2020/12/18 05:11:29;;;;;;;11.20;3.83;;;9.20;99.90;;;;;;5015590;28;20177;-93
2020/12/18 05:13:59;;;;;;;13.77;4.17;;;9.20;99.90;;;;;;5014560;28;20193;-95
2020/12/18 05:16:25;;;;;;;17.57;4.00;;;9.20;99.90;;;;;;5030953;28;20177;-90
2020/12/18 05:19:25;;;;;;;15.87;4.40;;;9.30;99.90;;;;;;5030151;28;20241;-92
2020/12/18 05:21:54;;;;;;;8.43;4.23;;;9.20;99.90;;;;;;5032145;28;20158;-92
2020/12/18 05:24:20;;;;;;;12.30;4.37;;;9.30;99.90;;;;;;5027039;28;20177;-90
2020/12/18 05:27:06;;;;;;;12.70;4.00;;;9.30;99.90;;;;;;5015971;28;20196;-89
2020/12/18 05:29:55;;;;;;;13.67;4.40;;;9.50;99.90;;;;;;5019205;28;20172;-91
2020/12/18 05:32:37;;;;;;;13.47;4.37;;;9.50;99.90;;;;;;5033438;28;20180;-90
2020/12/18 05:35:05;;;;;;;16.03;4.33;;;9.50;99.90;;;;;;5036441;28;20238;-90
2020/12/18 05:37:41;;;;;;;9.93;4.10;;;9.40;99.90;;;;;;5035330;28;20255;-89
2020/12/18 05:40:11;;;;;;;11.33;3.97;;;9.40;99.90;;;;;;5033800;28;20220;-89
2020/12/18 05:42:43;;;;;;;10.83;4.40;;;9.40;99.90;;;;;;5034162;28;20192;-90
2020/12/18 05:45:19;;;;;;;13.07;4.40;;;9.40;99.90;;;;;;5029969;28;20185;-89
2020/12/18 05:47:57;;;;;;;7.97;4.63;;;9.40;99.90;;;;;;5030157;28;20234;-89
2020/12/18 05:50:31;;;;;;;9.10;4.40;;;9.60;99.90;;;;;;5035173;28;20240;-90
2020/12/18 05:53:13;;;;;;;12.20;4.43;;;9.60;99.90;;;;;;5034793;28;20157;-91
2020/12/18 05:55:52;;;;;;;8.07;4.77;;;9.60;99.90;;;;;;5035371;28;20168;-91
2020/12/18 05:58:25;;;;;;;7.67;4.10;;;9.50;99.90;;;;;;5016695;28;20192;-90
2020/12/18 06:00:51;;;;;;;12.60;4.07;;;9.50;99.90;;;;;;5013692;28;20241;-90
2020/12/18 06:04:20;;;;;;;9.70;4.10;;;9.50;99.90;;;;;;5039975;28;20160;-90
2020/12/18 06:07:42;;;;;;;12.73;4.63;;;9.60;99.90;;;;;;5039364;28;20192;-89
2020/12/18 06:10:26;;;;;;;11.40;4.70;;;9.70;99.90;;;;;;5037378;28;20169;-90
2020/12/18 06:13:16;;;;;;;9.00;4.50;;;9.70;99.90;;;;;;5018206;28;20182;-90
2020/12/18 06:15:50;;;;;;;7.87;4.57;;;9.60;99.90;;;;;;5015524;28;20189;-90
2020/12/18 06:22:13;;;;;;;11.93;4.83;;;9.70;99.90;;;;;;5036224;28;20172;-91
2020/12/18 06:24:45;;;;;;;8.33;4.60;;;9.70;99.90;;;;;;4990498;28;20184;-91
2020/12/18 06:27:18;;;;;;;10.57;4.63;;;9.80;99.90;;;;;;5023816;28;20179;-91
2020/12/18 06:30:19;;;;;;;9.33;5.20;;;9.80;99.90;;;;;;5023759;28;20205;-90
2020/12/18 06:33:36;;;;;;;15.67;5.13;;;9.80;99.90;;;;;;5039473;28;20162;-90
2020/12/18 06:36:59;;;;;;;11.60;4.77;;;9.90;99.90;;;;;;5034843;28;20181;-91
2020/12/18 06:39:43;;;;;;;12.27;5.27;;;9.80;99.90;;;;;;5039526;28;20230;-92
2020/12/18 06:42:38;;;;;;;60.67;9.37;;;9.70;99.90;;;;;;5018447;28;20195;-96
2020/12/18 06:46:13;;;;;;;10.23;4.67;;;9.70;99.90;;;;;;5037078;28;20249;-90
2020/12/18 06:49:19;;;;;;;13.10;5.67;;;9.70;99.90;;;;;;5001792;28;20272;-90
2020/12/18 06:51:55;;;;;;;13.17;5.17;;;9.80;99.90;;;;;;5000810;28;20176;-90
2020/12/18 06:54:41;;;;;;;11.90;5.70;;;9.90;99.90;;;;;;4985414;28;20249;-89
2020/12/18 06:57:38;;;;;;;11.63;5.27;;;9.90;99.90;;;;;;5017260;28;20186;-90
2020/12/18 07:00:46;;;;;;;10.53;4.90;;;9.90;99.90;;;;;;4999959;28;20189;-89
2020/12/18 07:03:44;;;;;;;50.60;7.93;;;9.90;99.90;;;;;;5001622;28;20200;-90
2020/12/18 07:06:35;;;;;;;8.50;4.20;;;9.90;99.90;;;;;;5019586;28;20207;-90
2020/12/18 07:09:03;;;;;;;21.03;6.37;;;9.90;99.90;;;;;;5002061;28;20158;-90
2020/12/18 07:11:35;;;;;;;82.83;11.30;;;10.00;99.90;;;;;;5015373;28;20200;-91
2020/12/18 07:14:14;;;;;;;58.27;9.10;;;10.00;99.90;;;;;;5015194;28;20170;-91
2020/12/18 07:16:58;;;;;;;21.37;6.10;;;9.90;99.90;;;;;;4999906;28;20206;-91
2020/12/18 07:19:50;;;;;;;13.50;4.77;;;10.00;99.90;;;;;;5015894;28;20218;-90
2020/12/18 07:22:45;;;;;;;10.50;4.73;;;10.10;99.90;;;;;;4999703;28;20188;-90
2020/12/18 07:25:43;;;;;;;13.40;4.57;;;10.10;99.90;;;;;;5002003;28;20174;-90
2020/12/18 07:28:09;;;;;;;10.20;4.03;;;10.20;99.90;;;;;;5014128;28;20183;-91
2020/12/18 07:38:34;;;;;;;7.40;3.97;;;10.00;99.90;;;;;;5077722;23;20231;-92
2020/12/18 07:41:06;;;;;;;8.90;4.00;;;10.10;99.90;;;;;;5029085;28;20160;-95
2020/12/18 07:43:34;;;;;;;10.23;3.60;;;10.10;99.90;;;;;;5012403;28;20175;-90
2020/12/18 07:46:06;;;;;;;11.93;3.80;;;10.20;99.90;;;;;;5013488;28;20189;-87
2020/12/18 07:48:37;;;;;;;9.73;4.07;;;10.20;99.90;;;;;;5010504;28;20189;-87
2020/12/18 07:51:18;;;;;;;6.47;3.40;;;10.20;99.90;;;;;;5009399;28;20177;-86
2020/12/18 07:53:44;;;;;;;12.17;3.77;;;10.30;99.90;;;;;;5009905;28;20181;-84
2020/12/18 07:56:13;;;;;;;20.20;4.20;;;10.20;99.90;;;;;;5010099;28;20187;-85
2020/12/18 07:58:56;;;;;;;16.60;3.77;;;10.20;99.90;;;;;;5007228;28;20217;-85
2020/12/18 10:11:27;;;;;;;9.17;2.67;;;10.00;99.90;;;;;;5108268;28;20506;-89
2020/12/18 10:13:52;;;;;;;8.23;2.77;;;10.10;99.90;;;;;;5108087;28;20155;-87
2020/12/18 10:16:19;;;;;;;8.07;2.27;;;10.50;99.90;;;;;;5109462;28;20164;-89
2020/12/18 10:18:54;;;;;;;6.57;2.20;;;10.80;99.90;;;;;;5108048;28;20261;-86
2020/12/18 10:21:25;;;;;;;4.80;1.80;;;11.10;99.90;;;;;;5105315;28;20177;-87
2020/12/18 10:23:53;;;;;;;6.83;2.37;;;11.40;99.90;;;;;;5106922;28;20205;-87
2020/12/18 10:26:20;;;;;;;9.47;2.30;;;11.70;99.90;;;;;;5107881;28;20188;-87
2020/12/18 10:28:47;;;;;;;10.13;2.13;;;12.00;99.90;;;;;;5107292;28;20240;-85
2020/12/18 10:31:14;;;;;;;5.27;1.90;;;12.20;99.90;;;;;;5106378;28;20234;-86
2020/12/18 10:33:40;;;;;;;9.07;2.43;;;12.40;99.90;;;;;;5106362;28;20187;-87
2020/12/18 12:48:04;;;;;;;1.60;0.90;;;13.00;99.90;;;;;;5127628;27;804318;-92
2020/12/18 12:50:36;;;;;;;1.53;1.30;;;12.90;99.90;;;;;;5110833;28;20177;-91
2020/12/18 12:53:02;;;;;;;1.90;1.00;;;13.00;99.90;;;;;;5112221;28;20208;-90
2020/12/18 12:55:27;;;;;;;3.73;0.97;;;13.20;99.90;;;;;;5111749;28;20181;-90
2020/12/18 12:57:56;;;;;;;3.57;0.80;;;13.30;99.90;;;;;;5112243;28;20181;-95
2020/12/18 13:00:28;;;;;;;3.47;0.87;;;13.30;99.90;;;;;;5111787;28;20177;-96
2020/12/18 13:02:54;;;;;;;2.53;1.00;;;13.30;99.90;;;;;;5111570;28;20245;-94
2020/12/18 13:05:21;;;;;;;4.73;1.03;;;13.40;99.90;;;;;;5108172;28;20183;-89
2020/12/18 13:07:53;;;;;;;3.97;0.80;;;13.40;99.90;;;;;;5107241;28;20224;-91
2020/12/18 13:10:19;;;;;;;3.07;1.17;;;13.50;99.90;;;;;;5107476;28;20169;-91
2020/12/18 13:12:48;;;;;;;3.27;0.87;;;13.50;99.90;;;;;;5106699;28;20165;-87
2020/12/18 13:15:19;;;;;;;2.63;1.00;;;13.60;99.90;;;;;;5109476;28;20755;-87
2020/12/18 13:17:44;;;;;;;1.23;0.77;;;13.40;99.90;;;;;;5126154;28;20251;-87
2020/12/18 13:20:16;;;;;;;2.93;0.90;;;13.50;99.90;;;;;;5108488;28;20186;-87
2020/12/18 13:22:42;;;;;;;2.57;0.97;;;13.40;99.90;;;;;;5107044;28;20197;-87
2020/12/18 13:25:24;;;;;;;0.97;0.70;;;13.40;99.90;;;;;;5112225;28;20204;-95
2020/12/18 13:27:58;;;;;;;0.73;0.60;;;13.20;99.90;;;;;;5134682;28;20185;-90
2020/12/18 13:30:26;;;;;;;1.30;0.67;;;13.40;99.90;;;;;;5127281;28;20194;-87
2020/12/18 13:32:52;;;;;;;1.37;0.93;;;13.50;99.90;;;;;;5107651;28;20240;-87
2020/12/18 13:35:18;;;;;;;2.87;1.10;;;13.60;99.90;;;;;;5102514;28;20167;-87
2020/12/18 13:37:43;;;;;;;2.13;0.80;;;13.70;99.90;;;;;;5088167;28;20195;-87
2020/12/18 13:40:09;;;;;;;3.57;1.10;;;13.70;99.90;;;;;;5082178;28;20181;-89
2020/12/18 13:42:39;;;;;;;3.67;1.50;;;13.80;99.90;;;;;;5080458;28;20167;-94
2020/12/18 13:45:11;;;;;;;7.57;2.87;;;13.90;99.90;;;;;;5080206;28;20249;-96
2020/12/18 13:47:42;;;;;;;11.90;4.50;;;13.80;99.90;;;;;;5080245;28;20234;-95
2020/12/18 13:50:09;;;;;;;19.80;9.43;;;13.70;99.90;;;;;;5078321;28;20163;-90
2020/12/18 13:52:46;;;;;;;29.57;11.87;;;13.60;99.90;;;;;;5079789;28;20174;-87
2020/12/18 14:54:46;;;;;;;2.73;1.13;;;13.20;99.90;;;;;;5696422;22;20746;-85
2020/12/18 14:57:12;;;;;;;3.47;1.00;;;13.30;99.90;;;;;;5004693;28;20184;-86
2020/12/18 14:59:39;;;;;;;1.37;0.77;;;13.30;99.90;;;;;;5002513;28;20182;-85
2020/12/18 15:02:07;;;;;;;2.47;0.80;;;13.50;99.90;;;;;;5004083;28;20581;-86
2020/12/18 15:04:37;;;;;;;1.37;0.70;;;13.40;99.90;;;;;;5002573;28;20212;-87
2020/12/18 15:07:04;;;;;;;2.03;0.83;;;13.40;99.90;;;;;;5002447;28;20211;-87
2020/12/18 15:09:31;;;;;;;1.63;1.07;;;13.30;99.90;;;;;;5000494;28;20166;-85
2020/12/18 15:11:57;;;;;;;4.43;1.23;;;13.10;99.90;;;;;;5000567;28;20611;-86
2020/12/18 15:14:23;;;;;;;2.97;1.40;;;13.20;99.90;;;;;;5001219;28;20170;-85
2020/12/18 15:16:49;;;;;;;2.70;1.00;;;13.10;99.90;;;;;;5000539;28;20169;-86
2020/12/18 15:19:15;;;;;;;2.60;0.90;;;13.20;99.90;;;;;;5001588;28;20181;-86
2020/12/18 15:21:41;;;;;;;2.13;1.20;;;13.20;99.90;;;;;;5002675;28;20540;-86
2020/12/18 15:24:06;;;;;;;3.60;1.30;;;13.20;99.90;;;;;;5001392;28;20285;-86
2020/12/18 15:26:33;;;;;;;3.30;0.90;;;13.30;99.90;;;;;;5008809;28;20203;-87
2020/12/18 15:29:00;;;;;;;2.83;1.30;;;13.30;99.90;;;;;;5019071;28;20540;-86
2020/12/18 15:31:25;;;;;;;3.43;1.17;;;13.30;99.90;;;;;;5005848;28;20233;-86
2020/12/18 15:33:51;;;;;;;3.30;1.40;;;13.20;99.90;;;;;;4999636;28;20205;-86
2020/12/18 15:36:20;;;;;;;2.90;1.37;;;13.20;99.90;;;;;;4998665;28;20219;-86
2020/12/18 15:38:51;;;;;;;4.53;2.47;;;13.00;99.90;;;;;;4999810;28;20178;-86
2020/12/18 15:41:18;;;;;;;6.77;1.83;;;12.90;99.90;;;;;;4999108;28;20186;-88
2020/12/18 15:43:44;;;;;;;7.40;2.27;;;12.90;99.90;;;;;;4999145;28;20178;-86
2020/12/18 15:46:18;;;;;;;5.00;1.77;;;12.80;99.90;;;;;;4998904;28;20212;-87
2020/12/18 15:48:44;;;;;;;5.23;1.50;;;12.80;99.90;;;;;;4998689;28;20745;-86
2020/12/18 15:51:16;;;;;;;3.07;1.70;;;12.90;99.90;;;;;;4997612;28;20514;-87
2020/12/18 15:53:43;;;;;;;3.70;1.83;;;12.90;99.90;;;;;;4993760;28;20166;-85
2020/12/18 15:56:18;;;;;;;5.67;1.50;;;12.80;99.90;;;;;;4998200;28;20192;-90
2020/12/18 15:58:46;;;;;;;4.00;1.90;;;12.60;99.90;;;;;;5014058;28;20227;-88
2020/12/18 16:01:12;;;;;;;4.37;2.00;;;12.60;99.90;;;;;;5013993;28;20219;-88
2020/12/18 16:03:38;;;;;;;6.60;3.00;;;12.50;99.90;;;;;;5013519;28;20168;-87
2020/12/18 16:06:04;;;;;;;24.40;8.60;;;12.50;99.90;;;;;;5012904;28;20235;-86
2020/12/18 16:08:30;;;;;;;80.37;22.17;;;12.50;99.90;;;;;;5012181;28;20618;-87
2020/12/18 16:10:56;;;;;;;42.87;13.37;;;12.40;99.90;;;;;;5006525;28;20185;-87
2020/12/18 16:13:24;;;;;;;17.47;6.10;;;12.40;99.90;;;;;;4993247;28;20177;-89
2020/12/18 16:15:50;;;;;;;13.47;6.50;;;12.40;99.90;;;;;;4994156;28;20176;-86
2020/12/18 16:18:16;;;;;;;9.60;5.53;;;12.40;99.90;;;;;;4993408;28;20165;-86
2020/12/18 16:20:42;;;;;;;17.57;9.50;;;12.20;99.90;;;;;;4993224;28;20537;-86
2020/12/18 16:23:08;;;;;;;11.03;6.60;;;12.10;99.90;;;;;;4993320;28;20168;-86
2020/12/18 16:25:34;;;;;;;8.90;4.57;;;12.10;99.90;;;;;;4993490;28;20543;-86
2020/12/18 16:28:00;;;;;;;10.83;5.97;;;12.10;99.90;;;;;;5012435;28;20215;-86
2020/12/18 16:30:26;;;;;;;7.43;4.87;;;12.10;99.90;;;;;;5013209;28;20165;-89
2020/12/18 16:32:52;;;;;;;4.70;3.40;;;12.10;99.90;;;;;;5013172;28;20173;-86
2020/12/18 16:35:17;;;;;;;7.87;2.83;;;12.10;99.90;;;;;;5013327;28;20257;-87
2020/12/18 16:37:43;;;;;;;8.53;3.30;;;12.10;99.90;;;;;;5013054;28;20189;-86
2020/12/18 16:40:09;;;;;;;3.77;2.80;;;12.10;99.90;;;;;;5013542;28;20656;-87
2020/12/18 16:42:35;;;;;;;6.27;4.03;;;12.10;99.90;;;;;;5013244;28;20177;-88
2020/12/18 16:45:02;;;;;;;9.93;5.63;;;12.10;99.90;;;;;;5013572;28;20230;-88
2020/12/18 16:47:27;;;;;;;13.17;8.57;;;12.00;99.90;;;;;;5013215;28;20209;-88
2020/12/18 16:49:55;;;;;;;11.57;6.87;;;11.90;99.90;;;;;;5013419;28;20183;-86
2020/12/18 16:52:24;;;;;;;18.00;10.07;;;11.90;99.90;;;;;;5013114;28;20170;-86
2020/12/18 16:54:50;;;;;;;7.37;5.17;;;11.90;99.90;;;;;;5013357;28;20515;-86
2020/12/18 16:57:17;;;;;;;6.00;3.97;;;11.90;99.90;;;;;;5003080;28;20186;-88
2020/12/18 16:59:43;;;;;;;5.90;3.47;;;11.80;99.90;;;;;;4997715;28;20657;-86
2020/12/18 17:02:09;;;;;;;6.03;3.80;;;11.70;99.90;;;;;;4997111;28;20170;-88
2020/12/18 17:04:35;;;;;;;8.07;3.23;;;11.60;99.90;;;;;;4997881;28;20201;-89
2020/12/18 17:07:01;;;;;;;4.97;3.67;;;11.60;99.90;;;;;;4997355;28;20286;-86
2020/12/18 17:09:26;;;;;;;6.60;3.60;;;11.60;99.90;;;;;;4998279;28;20537;-87
2020/12/18 17:12:03;;;;;;;6.33;4.13;;;11.60;99.90;;;;;;5000373;28;20177;-86
2020/12/18 17:14:30;;;;;;;5.93;4.00;;;11.60;99.90;;;;;;4998267;28;20175;-87
2020/12/18 17:16:56;;;;;;;5.60;3.67;;;11.60;99.90;;;;;;4998971;28;20173;-86
2020/12/18 17:19:22;;;;;;;6.50;3.60;;;11.60;99.90;;;;;;5003811;28;20198;-87
2020/12/18 17:21:51;;;;;;;6.03;3.33;;;11.50;99.90;;;;;;5005832;28;20169;-88
2020/12/18 17:24:16;;;;;;;4.80;3.70;;;11.50;99.90;;;;;;5005416;28;20280;-87
2020/12/18 17:26:49;;;;;;;10.80;4.47;;;11.60;99.90;;;;;;5022422;28;20226;-87
2020/12/18 17:29:15;;;;;;;7.17;3.70;;;11.60;99.90;;;;;;5020899;28;20172;-87
2020/12/18 17:31:41;;;;;;;6.40;3.83;;;11.50;99.90;;;;;;5019462;28;20173;-86
2020/12/18 17:34:12;;;;;;;7.13;3.60;;;11.50;99.90;;;;;;5023064;28;20174;-85
2020/12/18 17:36:38;;;;;;;4.93;3.80;;;11.60;99.90;;;;;;5021757;28;20208;-87
2020/12/18 17:39:05;;;;;;;7.50;4.17;;;11.60;99.90;;;;;;5017170;28;20183;-88
2020/12/18 17:41:35;;;;;;;6.53;4.43;;;11.40;99.90;;;;;;5018410;28;20239;-87
2020/12/18 17:44:05;;;;;;;8.60;4.30;;;11.30;99.90;;;;;;5018117;28;20611;-89
2020/12/18 17:46:36;;;;;;;8.50;4.17;;;11.30;99.90;;;;;;5021282;28;20205;-91
2020/12/18 17:49:03;;;;;;;6.63;4.00;;;11.30;99.90;;;;;;5021480;28;20174;-86
2020/12/18 17:51:29;;;;;;;7.60;4.50;;;11.30;99.90;;;;;;5017172;28;20173;-86
2020/12/18 17:53:56;;;;;;;5.97;4.20;;;11.30;99.90;;;;;;5017405;28;20256;-86
2020/12/18 17:56:23;;;;;;;6.63;4.10;;;11.30;99.90;;;;;;5016953;28;20220;-86
2020/12/18 17:58:51;;;;;;;7.77;4.77;;;11.40;99.90;;;;;;5017545;28;20649;-87
2020/12/18 18:01:17;;;;;;;11.93;5.80;;;11.40;99.90;;;;;;5017153;28;20180;-86
2020/12/18 18:03:45;;;;;;;9.87;5.80;;;11.40;99.90;;;;;;5017104;28;20173;-86
2020/12/18 18:06:19;;;;;;;10.00;5.23;;;11.40;99.90;;;;;;5017575;28;20236;-86
2020/12/18 18:08:45;;;;;;;8.37;5.03;;;11.30;99.90;;;;;;5016610;28;20165;-87
2020/12/18 18:11:12;;;;;;;9.57;5.40;;;11.20;99.90;;;;;;5016558;28;20172;-92
2020/12/18 18:13:40;;;;;;;12.10;5.30;;;11.10;99.90;;;;;;5015886;28;20172;-88
2020/12/18 18:16:06;;;;;;;11.33;5.17;;;11.10;99.90;;;;;;5015777;28;20169;-91
2020/12/18 18:18:35;;;;;;;10.07;4.90;;;11.10;99.90;;;;;;5015928;28;20172;-91
2020/12/18 18:21:04;;;;;;;9.27;5.00;;;11.10;99.90;;;;;;5015929;28;20172;-90
2020/12/18 18:23:32;;;;;;;10.43;5.10;;;11.10;99.90;;;;;;5015559;28;20625;-90
2020/12/18 18:26:01;;;;;;;7.80;5.50;;;11.20;99.90;;;;;;5015507;28;20619;-90
2020/12/18 18:28:27;;;;;;;27.70;11.53;;;11.30;99.90;;;;;;5015310;28;20590;-89
2020/12/18 18:30:53;;;;;;;21.43;10.23;;;11.20;99.90;;;;;;5013871;28;20169;-88
2020/12/18 18:33:20;;;;;;;18.33;10.17;;;11.10;99.90;;;;;;5015082;28;20173;-84
2020/12/18 18:35:45;;;;;;;21.53;10.60;;;11.10;99.90;;;;;;5015082;28;20197;-86
2020/12/18 18:38:13;;;;;;;11.33;7.10;;;11.10;99.90;;;;;;5013112;28;20173;-86
2020/12/18 18:40:40;;;;;;;14.37;10.00;;;11.00;99.90;;;;;;5014262;28;20224;-86
2020/12/18 18:43:05;;;;;;;12.47;8.10;;;11.00;99.90;;;;;;5014419;28;20170;-87
2020/12/18 18:45:31;;;;;;;13.27;7.20;;;10.90;99.90;;;;;;5014440;28;20180;-86
2020/12/18 18:47:57;;;;;;;9.93;6.37;;;10.90;99.90;;;;;;5014954;28;20201;-84
2020/12/18 18:50:23;;;;;;;10.13;6.63;;;11.00;99.90;;;;;;5014898;28;20212;-88
2020/12/18 18:52:52;;;;;;;10.03;6.40;;;11.00;99.90;;;;;;5014722;28;20219;-87
2020/12/18 18:55:18;;;;;;;15.40;8.83;;;10.90;99.90;;;;;;5014684;28;20193;-90
2020/12/18 18:57:44;;;;;;;11.43;6.27;;;10.90;99.90;;;;;;5015047;28;20181;-88
2020/12/18 19:00:10;;;;;;;10.23;5.77;;;10.90;99.90;;;;;;5014963;28;20182;-90
2020/12/18 19:02:36;;;;;;;9.43;5.83;;;10.90;99.90;;;;;;5014144;28;20181;-87
2020/12/18 19:05:03;;;;;;;11.33;6.90;;;10.80;99.90;;;;;;5015544;28;20657;-88
2020/12/18 19:07:35;;;;;;;12.60;7.67;;;10.70;99.90;;;;;;5014358;28;20208;-91
2020/12/18 19:10:06;;;;;;;12.63;6.50;;;10.70;99.90;;;;;;5014556;28;20173;-90
2020/12/18 19:12:34;;;;;;;17.10;7.63;;;10.60;99.90;;;;;;4997720;28;20635;-88
2020/12/18 19:15:00;;;;;;;10.00;6.00;;;10.70;99.90;;;;;;4998114;28;20166;-90